createdAt,value
2022-11-15T00:02:13.344Z,9.04
2022-11-15T00:04:38.554Z,9.09
2022-11-15T00:07:03.894Z,9.06
2022-11-15T00:09:29.822Z,9.03
2022-11-15T00:11:56.266Z,8.99
2022-11-15T00:14:21.718Z,8.94
2022-11-15T00:16:50.554Z,8.94
2022-11-15T00:19:15.733Z,8.95
2022-11-15T00:21:41.270Z,8.92
2022-11-15T00:24:09.819Z,8.94
2022-11-15T00:26:35.142Z,8.96
2022-11-15T00:29:00.563Z,8.93
2022-11-15T00:31:27.850Z,8.89
2022-11-15T00:33:55.851Z,8.87
2022-11-15T00:36:21.000Z,8.84
2022-11-15T00:38:47.219Z,8.81
2022-11-15T00:41:12.623Z,8.79
2022-11-15T00:43:37.737Z,8.75
2022-11-15T00:46:04.026Z,8.74
2022-11-15T00:48:29.387Z,8.74
2022-11-15T00:50:57.150Z,8.67
2022-11-15T00:53:23.572Z,8.57
2022-11-15T00:55:48.954Z,8.59
2022-11-15T00:58:14.030Z,8.56
2022-11-15T01:00:40.242Z,8.49
2022-11-15T01:03:07.890Z,8.48
2022-11-15T01:05:32.970Z,8.46
2022-11-15T01:08:03.620Z,8.42
2022-11-15T01:10:29.137Z,8.41
2022-11-15T01:12:54.755Z,8.42
2022-11-15T01:15:21.123Z,8.41
2022-11-15T01:17:47.128Z,8.39
2022-11-15T01:20:15.386Z,8.33
2022-11-15T01:22:41.472Z,8.28
2022-11-15T01:25:11.654Z,7.86
2022-11-15T01:27:36.743Z,8.23
2022-11-15T01:30:03.241Z,8.23
2022-11-15T01:32:28.746Z,8.23
2022-11-15T01:34:53.959Z,8.23
2022-11-15T01:37:19.930Z,8.24
2022-11-15T01:39:45.300Z,8.27
2022-11-15T01:42:17.323Z,8.28
2022-11-15T01:44:50.066Z,8.24
2022-11-15T01:47:22.010Z,8.17
2022-11-15T01:50:00.956Z,8.10
2022-11-15T01:52:32.930Z,8.01
2022-11-15T01:55:08.164Z,8.00
2022-11-15T01:57:36.175Z,7.97
2022-11-15T02:00:07.335Z,7.97
2022-11-15T02:02:33.017Z,7.96
2022-11-15T02:04:58.870Z,7.99
2022-11-15T02:07:26.955Z,8.00
2022-11-15T02:09:54.832Z,8.03
2022-11-15T02:12:25.039Z,8.04
2022-11-15T02:14:59.021Z,8.06
2022-11-15T02:17:53.216Z,8.09
2022-11-15T02:20:47.437Z,8.05
2022-11-15T02:24:03.245Z,8.01
2022-11-15T02:27:17.905Z,8.00
2022-11-15T02:30:18.441Z,8.01
2022-11-15T02:32:55.077Z,8.00
2022-11-15T02:35:39.161Z,8.01
2022-11-15T02:38:22.044Z,8.01
2022-11-15T02:41:03.310Z,8.00
2022-11-15T02:43:59.075Z,7.99
2022-11-15T02:46:54.028Z,7.97
2022-11-15T02:49:21.394Z,7.91
2022-11-15T02:51:52.649Z,7.92
2022-11-15T02:54:26.136Z,7.91
2022-11-15T02:56:58.826Z,7.47
2022-11-15T02:59:56.516Z,7.86
2022-11-15T03:02:56.922Z,7.89
2022-11-15T03:05:38.656Z,7.93
2022-11-15T03:08:14.905Z,7.93
2022-11-15T03:10:56.330Z,7.93
2022-11-15T03:13:37.831Z,7.96
2022-11-15T03:16:13.717Z,7.95
2022-11-15T03:18:51.800Z,7.94
2022-11-15T03:21:23.935Z,7.97
2022-11-15T03:23:58.268Z,7.96
2022-11-15T03:26:29.557Z,7.94
2022-11-15T03:29:05.895Z,7.92
2022-11-15T03:31:51.831Z,7.88
2022-11-15T03:34:33.733Z,7.86
2022-11-15T03:36:59.549Z,7.85
2022-11-15T03:39:28.668Z,7.83
2022-11-15T03:42:13.314Z,7.81
2022-11-15T03:44:52.063Z,7.79
2022-11-15T03:47:27.805Z,7.77
2022-11-15T03:50:04.481Z,7.73
2022-11-15T03:52:30.230Z,7.66
2022-11-15T03:54:59.806Z,7.62
2022-11-15T03:57:25.527Z,7.55
2022-11-15T03:59:50.925Z,7.49
2022-11-15T04:02:17.769Z,7.47
2022-11-15T04:04:42.982Z,7.48
2022-11-15T04:07:11.393Z,7.48
2022-11-15T04:09:57.872Z,7.53
2022-11-15T04:12:32.002Z,7.52
2022-11-15T04:15:10.649Z,7.61
2022-11-15T04:17:36.232Z,7.63
2022-11-15T04:20:17.564Z,7.66
2022-11-15T04:23:01.085Z,7.66
2022-11-15T04:25:32.100Z,7.68
2022-11-15T04:27:57.869Z,7.70
2022-11-15T04:30:23.051Z,7.71
2022-11-15T04:32:49.473Z,7.70
2022-11-15T04:35:14.454Z,7.73
2022-11-15T04:37:36.672Z,7.60
2022-11-15T04:40:06.586Z,7.71
2022-11-15T04:42:32.166Z,7.72
2022-11-15T04:44:57.183Z,7.72
2022-11-15T04:47:23.360Z,7.76
2022-11-15T04:49:48.429Z,7.78
2022-11-15T04:52:14.234Z,7.79
2022-11-15T04:54:40.090Z,7.80
2022-11-15T04:57:10.273Z,7.79
2022-11-15T04:59:35.295Z,7.80
2022-11-15T05:02:01.526Z,7.84
2022-11-15T05:04:24.718Z,7.84
2022-11-15T05:06:51.147Z,7.83
2022-11-15T05:09:17.764Z,7.82
2022-11-15T05:11:43.118Z,7.81
2022-11-15T05:14:11.439Z,7.82
2022-11-15T05:16:38.145Z,7.81
2022-11-15T05:19:04.216Z,7.82
2022-11-15T05:21:29.282Z,7.81
2022-11-15T05:23:55.806Z,7.81
2022-11-15T05:26:22.790Z,7.82
2022-11-15T05:28:49.182Z,7.80
2022-11-15T05:31:20.456Z,7.80
2022-11-15T05:33:48.761Z,7.78
2022-11-15T05:36:25.650Z,7.75
2022-11-15T05:38:53.896Z,7.39
2022-11-15T05:41:26.657Z,7.70
2022-11-15T05:43:54.520Z,7.66
2022-11-15T05:46:23.403Z,7.66
2022-11-15T05:48:54.646Z,7.62
2022-11-15T05:51:26.552Z,7.56
2022-11-15T05:53:54.132Z,7.63
2022-11-15T05:56:20.786Z,7.59
2022-11-15T05:58:47.299Z,7.62
2022-11-15T06:01:13.578Z,7.62
2022-11-15T06:03:42.275Z,7.58
2022-11-15T06:06:15.100Z,7.56
2022-11-15T06:08:42.652Z,7.56
2022-11-15T06:11:10.731Z,7.57
2022-11-15T06:13:36.100Z,7.57
2022-11-15T06:16:04.951Z,7.60
2022-11-15T06:18:31.063Z,7.63
2022-11-15T06:21:03.983Z,7.65
2022-11-15T06:23:30.637Z,7.69
2022-11-15T06:25:56.010Z,7.73
2022-11-15T06:28:20.887Z,7.78
2022-11-15T06:30:51.941Z,7.80
2022-11-15T06:33:18.439Z,7.84
2022-11-15T06:35:43.799Z,7.84
2022-11-15T06:38:15.233Z,7.86
2022-11-15T06:40:42.682Z,7.89
2022-11-15T06:43:11.328Z,7.94
2022-11-15T06:45:38.062Z,7.96
2022-11-15T06:48:04.058Z,7.66
2022-11-15T06:50:29.507Z,8.05
2022-11-15T06:52:56.527Z,8.01
2022-11-15T06:55:24.697Z,8.11
2022-11-15T06:57:55.810Z,8.13
2022-11-15T07:00:25.261Z,8.13
2022-11-15T07:02:51.190Z,8.15
2022-11-15T07:05:17.751Z,8.17
2022-11-15T07:07:44.499Z,8.19
2022-11-15T07:10:11.735Z,8.23
2022-11-15T07:12:40.256Z,8.25
2022-11-15T07:15:08.679Z,8.25
2022-11-15T07:17:33.877Z,8.26
2022-11-15T07:19:59.378Z,8.25
2022-11-15T07:22:25.426Z,8.31
2022-11-15T07:24:50.548Z,8.32
2022-11-15T07:27:16.059Z,8.35
2022-11-15T07:29:46.296Z,8.37
2022-11-15T07:32:11.620Z,8.39
2022-11-15T07:34:37.233Z,8.45
2022-11-15T07:37:05.142Z,8.51
2022-11-15T07:39:30.418Z,8.59
2022-11-15T07:42:15.355Z,8.65
2022-11-15T07:44:42.004Z,8.71
2022-11-15T07:47:14.157Z,8.75
2022-11-15T07:49:39.510Z,8.79
2022-11-15T07:52:08.568Z,8.86
2022-11-15T07:54:34.112Z,8.92
2022-11-15T07:57:04.050Z,8.95
2022-11-15T07:59:31.480Z,9.01
2022-11-15T08:01:56.665Z,9.06
2022-11-15T08:04:25.701Z,9.10
2022-11-15T08:06:51.659Z,9.13
2022-11-15T08:09:16.991Z,9.16
2022-11-15T08:11:41.987Z,9.16
2022-11-15T08:14:10.837Z,9.21
2022-11-15T08:16:35.935Z,9.23
2022-11-15T08:19:01.388Z,9.28
2022-11-15T08:21:33.243Z,9.32
2022-11-15T08:23:58.333Z,9.39
2022-11-15T08:26:23.730Z,9.44
2022-11-15T08:28:49.890Z,9.48
2022-11-15T08:31:19.587Z,9.53
2022-11-15T08:33:44.691Z,9.57
2022-11-15T08:36:14.533Z,9.57
2022-11-15T08:38:42.457Z,9.56
2022-11-15T08:41:09.977Z,9.57
2022-11-15T08:43:36.778Z,9.55
2022-11-15T08:46:03.718Z,9.54
2022-11-15T08:48:29.557Z,9.53
2022-11-15T08:50:58.692Z,9.53
2022-11-15T08:53:23.503Z,9.54
2022-11-15T08:55:51.731Z,9.54
2022-11-15T08:58:17.514Z,9.51
2022-11-15T09:00:42.785Z,9.49
2022-11-15T09:03:10.658Z,9.47
2022-11-15T09:05:39.512Z,9.47
2022-11-15T09:08:19.106Z,9.47
2022-11-15T09:10:55.858Z,9.49
2022-11-15T09:13:22.125Z,9.50
2022-11-15T09:15:48.366Z,9.51
2022-11-15T09:18:14.177Z,9.55
2022-11-15T09:20:39.755Z,9.63
2022-11-15T09:23:06.890Z,9.69
2022-11-15T09:25:34.192Z,9.77
2022-11-15T09:28:03.371Z,9.82
2022-11-15T09:30:29.537Z,9.88
2022-11-15T09:32:55.997Z,9.92
2022-11-15T09:35:21.546Z,9.98
2022-11-15T09:37:49.098Z,10.07
2022-11-15T09:40:23.813Z,10.16
2022-11-15T09:43:31.256Z,10.25
2022-11-15T09:46:20.016Z,10.34
2022-11-15T09:48:58.289Z,9.54
2022-11-15T09:51:38.261Z,10.52
2022-11-15T09:54:37.578Z,10.59
2022-11-15T09:56:26.476Z,10.47
2022-11-15T09:58:50.873Z,10.76
2022-11-15T10:00:57.775Z,10.82
2022-11-15T10:03:16.696Z,10.88
2022-11-15T10:05:29.907Z,10.96
2022-11-15T10:07:55.625Z,11.04
2022-11-15T10:10:19.448Z,11.14
2022-11-15T10:12:31.171Z,11.24
2022-11-15T10:14:41.235Z,11.34
2022-11-15T10:17:33.888Z,11.45
2022-11-15T10:20:05.290Z,11.57
2022-11-15T10:22:34.293Z,11.72
2022-11-15T10:24:47.614Z,11.87
2022-11-15T10:26:54.920Z,11.73
2022-11-15T10:29:04.595Z,12.11
2022-11-15T10:31:28.726Z,12.25
2022-11-15T10:33:38.978Z,12.40
2022-11-15T10:35:47.158Z,12.45
2022-11-15T10:37:54.898Z,12.62
2022-11-15T10:40:10.657Z,12.74
2022-11-15T10:42:29.659Z,12.82
2022-11-15T10:44:47.440Z,12.92
2022-11-15T10:47:37.857Z,12.98
2022-11-15T10:50:00.616Z,13.07
2022-11-15T10:52:25.298Z,13.14
2022-11-15T10:54:46.358Z,13.08
2022-11-15T10:56:57.268Z,13.08
2022-11-15T10:59:04.027Z,13.13
2022-11-15T11:01:19.628Z,13.21
2022-11-15T11:03:42.056Z,13.29
2022-11-15T11:05:48.909Z,13.34
2022-11-15T11:08:03.665Z,13.39
2022-11-15T11:12:52.518Z,13.43
2022-11-15T11:14:59.524Z,13.37
2022-11-15T11:17:20.788Z,13.30
2022-11-15T11:19:59.246Z,13.25
2022-11-15T11:22:21.348Z,13.26
2022-11-15T11:24:40.843Z,13.24
2022-11-15T11:27:07.204Z,13.21
2022-11-15T11:29:47.109Z,13.36
2022-11-15T11:32:11.702Z,13.49
2022-11-15T11:34:49.071Z,13.54
2022-11-15T11:37:14.890Z,13.62
2022-11-15T11:39:40.146Z,13.66
2022-11-15T11:42:00.637Z,13.73
2022-11-15T11:44:32.107Z,13.11
2022-11-15T11:46:55.202Z,13.93
2022-11-15T11:49:12.722Z,14.04
2022-11-15T11:51:31.576Z,14.14
2022-11-15T11:53:50.251Z,14.21
2022-11-15T11:56:06.556Z,14.36
2022-11-15T11:58:27.293Z,14.42
2022-11-15T12:00:45.722Z,14.52
2022-11-15T12:03:12.132Z,14.69
2022-11-15T12:05:35.146Z,14.80
2022-11-15T12:07:51.078Z,14.85
2022-11-15T12:10:07.031Z,14.84
2022-11-15T12:12:22.966Z,14.79
2022-11-15T12:14:51.040Z,14.71
2022-11-15T12:16:57.856Z,14.82
2022-11-15T12:19:08.020Z,14.89
2022-11-15T12:21:30.412Z,14.89
2022-11-15T12:23:50.606Z,14.94
2022-11-15T12:26:09.018Z,14.96
2022-11-15T12:28:30.061Z,15.02
2022-11-15T12:30:53.133Z,15.01
2022-11-15T12:33:06.753Z,15.05
2022-11-15T12:35:34.639Z,15.14
2022-11-15T12:37:59.569Z,15.21
2022-11-15T12:40:31.293Z,15.25
2022-11-15T12:42:58.186Z,15.29
2022-11-15T12:45:06.604Z,15.36
2022-11-15T12:47:29.822Z,15.41
2022-11-15T12:49:53.072Z,15.39
2022-11-15T12:52:12.449Z,15.33
2022-11-15T12:54:58.143Z,15.43
2022-11-15T12:57:45.670Z,15.46
2022-11-15T12:59:56.272Z,15.51
2022-11-15T13:02:06.795Z,15.55
2022-11-15T13:04:28.112Z,15.59
2022-11-15T13:06:48.086Z,15.51
2022-11-15T13:08:55.191Z,15.44
2022-11-15T13:11:22.725Z,15.42
2022-11-15T13:13:49.785Z,15.38
2022-11-15T13:16:00.602Z,15.38
2022-11-15T13:18:38.721Z,15.44
2022-11-15T13:20:49.748Z,15.45
2022-11-15T13:23:03.664Z,15.46
2022-11-15T13:25:22.962Z,15.47
2022-11-15T13:27:29.773Z,15.49
2022-11-15T13:29:39.340Z,15.47
2022-11-15T13:31:49.547Z,15.47
2022-11-15T13:34:01.174Z,15.48
2022-11-15T13:36:18.644Z,15.43
2022-11-15T13:38:32.715Z,15.37
2022-11-15T13:40:42.051Z,15.33
2022-11-15T13:42:48.673Z,15.29
2022-11-15T13:45:06.390Z,15.23
2022-11-15T13:47:24.229Z,15.20
2022-11-15T13:49:35.601Z,15.19
2022-11-15T13:51:52.378Z,15.19
2022-11-15T13:54:06.527Z,15.16
2022-11-15T13:56:14.240Z,15.17
2022-11-15T13:58:24.262Z,15.14
2022-11-15T14:00:44.605Z,15.09
2022-11-15T14:02:51.798Z,15.07
2022-11-15T14:05:06.722Z,15.06
2022-11-15T14:07:23.127Z,14.95
2022-11-15T14:09:41.969Z,15.01
2022-11-15T14:11:58.762Z,14.94
2022-11-15T14:14:19.003Z,14.89
2022-11-15T14:16:39.512Z,14.85
2022-11-15T14:18:51.147Z,14.81
2022-11-15T14:21:11.663Z,14.47
2022-11-15T14:23:29.653Z,14.74
2022-11-15T14:25:38.936Z,14.68
2022-11-15T14:27:48.589Z,14.64
2022-11-15T14:29:57.090Z,14.61
2022-11-15T14:32:20.549Z,14.57
2022-11-15T14:34:27.597Z,14.53
2022-11-15T14:36:34.197Z,14.50
2022-11-15T14:38:41.993Z,14.47
2022-11-15T14:40:48.984Z,14.44
2022-11-15T14:42:55.849Z,14.42
2022-11-15T14:45:06.450Z,14.39
2022-11-15T14:47:15.876Z,14.33
2022-11-15T14:49:22.474Z,14.25
2022-11-15T14:51:30.164Z,14.20
2022-11-15T14:53:37.375Z,14.20
2022-11-15T14:55:44.161Z,14.17
2022-11-15T14:57:51.725Z,14.13
2022-11-15T14:59:58.556Z,14.10
2022-11-15T15:02:25.635Z,14.10
2022-11-15T15:04:33.068Z,14.08
2022-11-15T15:06:39.728Z,14.07
2022-11-15T15:08:46.552Z,14.08
2022-11-15T15:10:54.246Z,14.09
2022-11-15T15:13:00.852Z,14.11
2022-11-15T15:15:18.090Z,14.09
2022-11-15T15:17:28.407Z,14.11
2022-11-15T15:19:35.004Z,14.14
2022-11-15T15:21:42.241Z,14.19
2022-11-15T15:23:49.698Z,14.18
2022-11-15T15:25:56.400Z,14.25
2022-11-15T15:28:03.977Z,14.28
2022-11-15T15:30:13.560Z,14.29
2022-11-15T15:32:20.256Z,14.31
2022-11-15T15:34:29.751Z,14.30
2022-11-15T15:36:37.219Z,14.31
2022-11-15T15:38:43.968Z,14.34
2022-11-15T15:40:51.656Z,14.37
2022-11-15T15:43:00.000Z,14.38
2022-11-15T15:45:12.094Z,14.41
2022-11-15T15:47:24.487Z,14.43
2022-11-15T15:49:34.679Z,14.41
2022-11-15T15:51:41.263Z,14.41
2022-11-15T15:53:47.903Z,14.42
2022-11-15T15:55:55.296Z,14.41
2022-11-15T15:58:03.370Z,14.42
2022-11-15T16:00:13.188Z,14.42
2022-11-15T16:02:20.631Z,14.44
2022-11-15T16:04:27.639Z,14.42
2022-11-15T16:06:45.340Z,14.36
2022-11-15T16:09:13.392Z,14.37
2022-11-15T16:11:19.552Z,14.36
2022-11-15T16:13:26.144Z,14.36
2022-11-15T16:15:36.366Z,14.33
2022-11-15T16:17:51.125Z,14.30
2022-11-15T16:19:57.740Z,14.28
2022-11-15T16:22:09.514Z,14.27
2022-11-15T16:24:16.428Z,14.26
2022-11-15T16:26:28.185Z,14.22
2022-11-15T16:28:37.344Z,14.20
2022-11-15T16:30:44.196Z,14.19
2022-11-15T16:32:51.694Z,14.18
2022-11-15T16:34:59.336Z,14.16
2022-11-15T16:37:22.774Z,14.16
2022-11-15T16:39:31.017Z,14.14
2022-11-15T16:41:38.668Z,14.11
2022-11-15T16:43:45.332Z,14.09
2022-11-15T16:45:54.465Z,14.06
2022-11-15T16:48:05.867Z,14.03
2022-11-15T16:50:28.216Z,13.97
2022-11-15T16:52:37.811Z,13.93
2022-11-15T16:54:45.231Z,13.91
2022-11-15T16:56:51.800Z,13.91
2022-11-15T16:59:00.751Z,13.92
2022-11-15T17:01:09.301Z,13.91
2022-11-15T17:03:15.887Z,13.91
2022-11-15T17:05:27.459Z,13.61
2022-11-15T17:07:38.009Z,13.91
2022-11-15T17:09:44.572Z,13.91
2022-11-15T17:11:51.223Z,13.90
2022-11-15T17:14:02.679Z,13.85
2022-11-15T17:16:12.693Z,13.82
2022-11-15T17:18:22.429Z,13.80
2022-11-15T17:20:30.683Z,13.76
2022-11-15T17:22:40.744Z,13.73
2022-11-15T17:24:47.315Z,13.70
2022-11-15T17:26:54.731Z,13.68
2022-11-15T17:29:03.248Z,13.60
2022-11-15T17:31:12.109Z,13.61
2022-11-15T17:33:19.546Z,13.56
2022-11-15T17:35:26.129Z,13.53
2022-11-15T17:37:32.755Z,13.51
2022-11-15T17:39:43.071Z,13.47
2022-11-15T17:41:50.384Z,13.46
2022-11-15T17:44:00.154Z,13.43
2022-11-15T17:46:14.859Z,13.41
2022-11-15T17:48:21.453Z,13.37
2022-11-15T17:50:28.297Z,13.33
2022-11-15T17:52:35.947Z,13.10
2022-11-15T17:54:45.310Z,13.28
2022-11-15T17:56:51.978Z,13.26
2022-11-15T17:59:05.705Z,13.24
2022-11-15T18:01:22.231Z,13.24
2022-11-15T18:03:28.978Z,13.22
2022-11-15T18:05:36.517Z,13.23
2022-11-15T18:07:43.128Z,13.22
2022-11-15T18:09:52.556Z,13.23
2022-11-15T18:12:00.010Z,13.23
2022-11-15T18:14:13.944Z,13.22
2022-11-15T18:16:25.472Z,13.24
2022-11-15T18:18:34.376Z,13.23
2022-11-15T18:20:41.409Z,13.21
2022-11-15T18:22:47.996Z,13.19
2022-11-15T18:24:58.205Z,13.18
2022-11-15T18:27:08.754Z,13.16
2022-11-15T18:29:15.347Z,13.15
2022-11-15T18:31:25.767Z,13.14
2022-11-15T18:33:37.562Z,13.13
2022-11-15T18:35:44.170Z,12.33
2022-11-15T18:37:51.587Z,13.15
2022-11-15T18:40:03.074Z,13.16
2022-11-15T18:42:10.007Z,13.18
2022-11-15T18:44:18.839Z,13.12
2022-11-15T18:46:29.643Z,13.14
2022-11-15T18:48:37.686Z,13.18
2022-11-15T18:50:45.111Z,13.17
2022-11-15T18:52:51.732Z,13.16
2022-11-15T18:54:58.320Z,13.17
2022-11-15T18:57:09.770Z,13.18
2022-11-15T18:59:18.213Z,13.18
2022-11-15T19:01:27.291Z,13.17
2022-11-15T19:03:36.655Z,13.17
2022-11-15T19:05:43.424Z,13.16
2022-11-15T19:07:51.979Z,13.17
2022-11-15T19:09:59.490Z,13.17
2022-11-15T19:12:10.246Z,13.17
2022-11-15T19:14:19.703Z,13.17
2022-11-15T19:16:29.310Z,13.15
2022-11-15T19:18:37.242Z,13.13
2022-11-15T19:20:43.829Z,13.13
2022-11-15T19:22:51.263Z,13.12
2022-11-15T19:24:58.381Z,13.10
2022-11-15T19:27:05.660Z,13.10
2022-11-15T19:29:17.429Z,12.98
2022-11-15T19:31:26.677Z,13.05
2022-11-15T19:33:34.297Z,13.04
2022-11-15T19:35:41.909Z,13.00
2022-11-15T19:37:48.508Z,13.01
2022-11-15T19:39:55.587Z,12.98
2022-11-15T19:42:03.456Z,12.98
2022-11-15T19:44:10.238Z,12.96
2022-11-15T19:46:23.664Z,12.96
2022-11-15T19:48:32.916Z,12.98
2022-11-15T19:50:40.901Z,13.00
2022-11-15T19:52:47.529Z,13.01
2022-11-15T19:54:54.973Z,13.01
2022-11-15T19:57:03.638Z,12.99
2022-11-15T19:59:11.850Z,12.97
2022-11-15T20:01:25.156Z,12.95
2022-11-15T20:03:32.816Z,12.96
2022-11-15T20:05:39.782Z,12.97
2022-11-15T20:07:47.522Z,12.95
2022-11-15T20:09:54.559Z,12.92
2022-11-15T20:12:01.119Z,12.88
2022-11-15T20:14:11.872Z,12.88
2022-11-15T20:16:24.894Z,12.94
2022-11-15T20:18:33.584Z,12.99
2022-11-15T20:20:41.268Z,13.00
2022-11-15T20:22:47.861Z,12.99
2022-11-15T20:24:54.626Z,13.00
2022-11-15T20:27:02.589Z,12.97
2022-11-15T20:29:10.266Z,12.98
2022-11-15T20:31:19.274Z,12.97
2022-11-15T20:33:30.943Z,12.92
2022-11-15T20:35:37.478Z,12.92
2022-11-15T20:37:44.150Z,12.89
2022-11-15T20:39:51.810Z,12.89
2022-11-15T20:41:58.476Z,12.92
2022-11-15T20:44:07.249Z,12.94
2022-11-15T20:46:16.042Z,12.96
2022-11-15T20:48:22.753Z,12.97
2022-11-15T20:50:46.909Z,12.97
2022-11-15T20:52:54.610Z,12.97
2022-11-15T20:55:03.597Z,12.95
2022-11-15T20:57:10.606Z,12.97
2022-11-15T20:59:18.167Z,12.99
2022-11-15T21:01:26.077Z,12.99
2022-11-15T21:03:32.745Z,12.98
2022-11-15T21:05:47.228Z,13.02
2022-11-15T21:07:53.869Z,13.02
2022-11-15T21:10:15.898Z,13.05
2022-11-15T21:12:23.403Z,13.07
2022-11-15T21:14:30.334Z,13.08
2022-11-15T21:16:36.938Z,13.11
2022-11-15T21:18:44.447Z,13.11
2022-11-15T21:20:54.064Z,13.12
2022-11-15T21:23:00.624Z,13.13
2022-11-15T21:25:09.804Z,13.14
2022-11-15T21:27:16.537Z,13.15
2022-11-15T21:29:23.148Z,13.15
2022-11-15T21:31:32.170Z,13.17
2022-11-15T21:33:39.111Z,13.18
2022-11-15T21:35:45.671Z,13.18
2022-11-15T21:37:57.134Z,13.18
2022-11-15T21:40:03.877Z,13.20
2022-11-15T21:42:10.459Z,13.20
2022-11-15T21:44:17.938Z,13.15
2022-11-15T21:46:24.563Z,13.21
2022-11-15T21:48:34.804Z,13.19
2022-11-15T21:50:43.854Z,13.19
2022-11-15T21:52:50.376Z,13.21
2022-11-15T21:55:00.405Z,13.17
2022-11-15T21:57:09.045Z,13.24
2022-11-15T21:59:15.690Z,13.25
2022-11-15T22:01:38.218Z,13.26
2022-11-15T22:03:46.849Z,13.27
2022-11-15T22:05:53.419Z,13.27
2022-11-15T22:07:59.976Z,13.27
2022-11-15T22:10:12.937Z,13.27
2022-11-15T22:12:19.632Z,13.27
2022-11-15T22:14:26.263Z,13.26
2022-11-15T22:16:34.025Z,13.27
2022-11-15T22:18:41.613Z,13.26
2022-11-15T22:20:57.148Z,13.28
2022-11-15T22:23:06.030Z,13.30
2022-11-15T22:25:15.793Z,13.26
2022-11-15T22:27:22.587Z,13.24
2022-11-15T22:29:30.689Z,13.22
2022-11-15T22:31:38.722Z,13.22
2022-11-15T22:33:45.548Z,13.22
2022-11-15T22:35:53.902Z,13.24
2022-11-15T22:38:00.668Z,13.27
2022-11-15T22:40:11.298Z,13.24
2022-11-15T22:42:23.907Z,13.25
2022-11-15T22:44:30.983Z,13.23
2022-11-15T22:46:37.897Z,13.20
2022-11-15T22:48:45.570Z,13.18
2022-11-15T22:50:53.354Z,13.18
2022-11-15T22:53:00.439Z,13.17
2022-11-15T22:55:11.204Z,13.18
2022-11-15T22:57:20.920Z,13.18
2022-11-15T22:59:28.149Z,13.20
2022-11-15T23:01:35.869Z,13.21
2022-11-15T23:03:42.726Z,13.21
2022-11-15T23:05:49.783Z,13.23
2022-11-15T23:07:57.741Z,13.23
2022-11-15T23:10:18.427Z,13.25
2022-11-15T23:12:43.790Z,13.26
2022-11-15T23:14:51.540Z,13.24
2022-11-15T23:16:58.872Z,13.26
2022-11-15T23:19:10.874Z,13.22
2022-11-15T23:21:42.743Z,13.02
2022-11-15T23:23:46.761Z,13.17
2022-11-15T23:26:03.419Z,12.43
2022-11-15T23:28:14.247Z,13.17
2022-11-15T23:30:37.386Z,13.17
2022-11-15T23:33:00.190Z,13.15
2022-11-15T23:35:11.095Z,13.16
2022-11-15T23:37:19.551Z,13.17
2022-11-15T23:39:26.680Z,13.16
2022-11-15T23:41:34.393Z,13.14
2022-11-15T23:43:44.068Z,13.17
2022-11-15T23:45:50.981Z,13.22
2022-11-15T23:48:01.433Z,13.20
2022-11-15T23:50:11.268Z,13.20
2022-11-15T23:52:18.912Z,13.16
2022-11-15T23:54:26.632Z,13.13
2022-11-15T23:56:33.640Z,13.11
2022-11-15T23:58:44.044Z,12.85
